sensor_id;sensor_type;location;lat;lon;timestamp;temperature;humidity
3478;DHT22;37937;61.490;23.506;2023-04-16T00:01:33;-0.70;41.20
3478;DHT22;37937;61.490;23.506;2023-04-16T00:03:59;-0.70;42.00
3478;DHT22;37937;61.490;23.506;2023-04-16T00:06:24;-0.70;42.50
3478;DHT22;37937;61.490;23.506;2023-04-16T00:08:50;-0.80;40.10
3478;DHT22;37937;61.490;23.506;2023-04-16T00:11:16;-0.80;40.20
3478;DHT22;37937;61.490;23.506;2023-04-16T00:13:41;-0.80;39.40
3478;DHT22;37937;61.490;23.506;2023-04-16T00:16:07;-0.80;40.50
3478;DHT22;37937;61.490;23.506;2023-04-16T00:18:33;-0.80;40.70
3478;DHT22;37937;61.490;23.506;2023-04-16T00:20:58;-0.90;39.00
3478;DHT22;37937;61.490;23.506;2023-04-16T00:23:24;-0.90;42.90
3478;DHT22;37937;61.490;23.506;2023-04-16T00:25:50;-0.90;41.30
3478;DHT22;37937;61.490;23.506;2023-04-16T00:28:15;-0.90;41.20
3478;DHT22;37937;61.490;23.506;2023-04-16T00:30:41;-0.80;41.10
3478;DHT22;37937;61.490;23.506;2023-04-16T00:33:06;-0.90;41.50
3478;DHT22;37937;61.490;23.506;2023-04-16T00:35:32;-0.90;39.50
3478;DHT22;37937;61.490;23.506;2023-04-16T00:37:58;-1.10;41.30
3478;DHT22;37937;61.490;23.506;2023-04-16T00:40:26;-1.00;41.80
3478;DHT22;37937;61.490;23.506;2023-04-16T00:42:51;-1.00;43.00
3478;DHT22;37937;61.490;23.506;2023-04-16T00:45:17;-1.00;42.40
3478;DHT22;37937;61.490;23.506;2023-04-16T00:47:43;-1.00;41.90
3478;DHT22;37937;61.490;23.506;2023-04-16T00:50:08;-1.10;41.30
3478;DHT22;37937;61.490;23.506;2023-04-16T00:52:34;-1.10;43.50
3478;DHT22;37937;61.490;23.506;2023-04-16T00:55:00;-1.20;42.90
3478;DHT22;37937;61.490;23.506;2023-04-16T00:57:26;-1.30;42.10
3478;DHT22;37937;61.490;23.506;2023-04-16T00:59:52;-1.30;43.90
3478;DHT22;37937;61.490;23.506;2023-04-16T01:02:18;-1.40;46.10
3478;DHT22;37937;61.490;23.506;2023-04-16T01:04:43;-1.50;48.50
3478;DHT22;37937;61.490;23.506;2023-04-16T01:07:09;-1.40;51.90
3478;DHT22;37937;61.490;23.506;2023-04-16T01:09:35;-1.40;50.80
3478;DHT22;37937;61.490;23.506;2023-04-16T01:12:01;-1.50;53.40
3478;DHT22;37937;61.490;23.506;2023-04-16T01:14:26;-1.60;54.30
3478;DHT22;37937;61.490;23.506;2023-04-16T01:16:52;-1.60;51.70
3478;DHT22;37937;61.490;23.506;2023-04-16T01:19:17;-1.60;50.60
3478;DHT22;37937;61.490;23.506;2023-04-16T01:21:43;-1.60;49.80
3478;DHT22;37937;61.490;23.506;2023-04-16T01:24:08;-1.70;49.70
3478;DHT22;37937;61.490;23.506;2023-04-16T01:26:34;-1.70;53.10
3478;DHT22;37937;61.490;23.506;2023-04-16T01:29:01;-1.70;53.40
3478;DHT22;37937;61.490;23.506;2023-04-16T01:31:26;-1.80;52.40
3478;DHT22;37937;61.490;23.506;2023-04-16T01:33:52;-1.70;52.10
3478;DHT22;37937;61.490;23.506;2023-04-16T01:36:17;-1.70;50.20
3478;DHT22;37937;61.490;23.506;2023-04-16T01:38:43;-1.70;49.30
3478;DHT22;37937;61.490;23.506;2023-04-16T01:41:09;-1.70;48.90
3478;DHT22;37937;61.490;23.506;2023-04-16T01:43:34;-1.70;49.70
3478;DHT22;37937;61.490;23.506;2023-04-16T01:46:34;-1.70;52.30
3478;DHT22;37937;61.490;23.506;2023-04-16T01:48:53;-1.70;51.60
3478;DHT22;37937;61.490;23.506;2023-04-16T01:51:19;-1.70;48.60
3478;DHT22;37937;61.490;23.506;2023-04-16T01:53:45;-1.80;49.80
3478;DHT22;37937;61.490;23.506;2023-04-16T01:56:10;-1.80;49.70
3478;DHT22;37937;61.490;23.506;2023-04-16T01:58:36;-1.90;50.10
3478;DHT22;37937;61.490;23.506;2023-04-16T02:01:02;-1.80;51.20
3478;DHT22;37937;61.490;23.506;2023-04-16T02:03:28;-1.90;51.60
3478;DHT22;37937;61.490;23.506;2023-04-16T02:05:53;-1.90;51.90
3478;DHT22;37937;61.490;23.506;2023-04-16T02:08:19;-1.90;53.60
3478;DHT22;37937;61.490;23.506;2023-04-16T02:10:45;-2.00;54.60
3478;DHT22;37937;61.490;23.506;2023-04-16T02:13:12;-2.00;54.10
3478;DHT22;37937;61.490;23.506;2023-04-16T02:15:37;-2.00;55.70
3478;DHT22;37937;61.490;23.506;2023-04-16T02:18:03;-2.00;54.00
3478;DHT22;37937;61.490;23.506;2023-04-16T02:20:28;-2.00;53.20
3478;DHT22;37937;61.490;23.506;2023-04-16T02:22:54;-2.00;54.40
3478;DHT22;37937;61.490;23.506;2023-04-16T02:25:20;-2.00;55.60
3478;DHT22;37937;61.490;23.506;2023-04-16T02:27:46;-2.00;53.70
3478;DHT22;37937;61.490;23.506;2023-04-16T02:30:12;-2.00;50.60
3478;DHT22;37937;61.490;23.506;2023-04-16T02:32:37;-2.00;50.00
3478;DHT22;37937;61.490;23.506;2023-04-16T02:35:03;-2.00;53.00
3478;DHT22;37937;61.490;23.506;2023-04-16T02:37:29;-2.00;49.70
3478;DHT22;37937;61.490;23.506;2023-04-16T02:39:55;-2.00;47.30
3478;DHT22;37937;61.490;23.506;2023-04-16T02:42:22;-2.00;47.40
3478;DHT22;37937;61.490;23.506;2023-04-16T02:44:47;-2.00;48.70
3478;DHT22;37937;61.490;23.506;2023-04-16T02:47:13;-2.00;50.20
3478;DHT22;37937;61.490;23.506;2023-04-16T02:49:38;-2.10;50.90
3478;DHT22;37937;61.490;23.506;2023-04-16T02:52:04;-2.10;51.90
3478;DHT22;37937;61.490;23.506;2023-04-16T02:54:30;-2.10;50.10
3478;DHT22;37937;61.490;23.506;2023-04-16T02:56:55;-2.10;51.30
3478;DHT22;37937;61.490;23.506;2023-04-16T02:59:21;-2.20;54.00
3478;DHT22;37937;61.490;23.506;2023-04-16T03:01:46;-2.10;52.30
3478;DHT22;37937;61.490;23.506;2023-04-16T03:04:12;-2.10;51.80
3478;DHT22;37937;61.490;23.506;2023-04-16T03:06:38;-2.10;52.10
3478;DHT22;37937;61.490;23.506;2023-04-16T03:09:04;-2.20;50.70
3478;DHT22;37937;61.490;23.506;2023-04-16T03:11:29;-2.20;50.80
3478;DHT22;37937;61.490;23.506;2023-04-16T03:13:55;-2.20;50.80
3478;DHT22;37937;61.490;23.506;2023-04-16T03:16:20;-2.20;52.60
3478;DHT22;37937;61.490;23.506;2023-04-16T03:18:46;-2.10;50.70
3478;DHT22;37937;61.490;23.506;2023-04-16T03:21:12;-2.20;52.10
3478;DHT22;37937;61.490;23.506;2023-04-16T03:23:37;-2.10;50.20
3478;DHT22;37937;61.490;23.506;2023-04-16T03:26:03;-2.20;50.50
3478;DHT22;37937;61.490;23.506;2023-04-16T03:28:28;-2.20;50.70
3478;DHT22;37937;61.490;23.506;2023-04-16T03:30:54;-2.10;48.90
3478;DHT22;37937;61.490;23.506;2023-04-16T03:33:20;-2.10;48.30
3478;DHT22;37937;61.490;23.506;2023-04-16T03:35:46;-2.10;48.20
3478;DHT22;37937;61.490;23.506;2023-04-16T03:38:11;-2.10;45.80
3478;DHT22;37937;61.490;23.506;2023-04-16T03:40:37;-2.10;46.00
3478;DHT22;37937;61.490;23.506;2023-04-16T03:43:03;-2.10;46.70
3478;DHT22;37937;61.490;23.506;2023-04-16T03:45:28;-2.10;47.80
3478;DHT22;37937;61.490;23.506;2023-04-16T03:47:54;-2.10;44.50
3478;DHT22;37937;61.490;23.506;2023-04-16T03:50:20;-2.00;46.50
3478;DHT22;37937;61.490;23.506;2023-04-16T03:52:46;-2.00;47.00
3478;DHT22;37937;61.490;23.506;2023-04-16T03:55:13;-1.90;43.30
3478;DHT22;37937;61.490;23.506;2023-04-16T03:57:39;-1.80;40.40
3478;DHT22;37937;61.490;23.506;2023-04-16T04:00:06;-1.60;42.20
3478;DHT22;37937;61.490;23.506;2023-04-16T04:02:31;-1.30;38.90
3478;DHT22;37937;61.490;23.506;2023-04-16T04:04:57;-0.90;38.00
3478;DHT22;37937;61.490;23.506;2023-04-16T04:07:23;-0.50;37.90
3478;DHT22;37937;61.490;23.506;2023-04-16T04:09:48;-0.10;34.90
3478;DHT22;37937;61.490;23.506;2023-04-16T04:12:14;0.40;36.60
3478;DHT22;37937;61.490;23.506;2023-04-16T04:14:39;0.80;30.10
3478;DHT22;37937;61.490;23.506;2023-04-16T04:17:05;1.20;27.60
3478;DHT22;37937;61.490;23.506;2023-04-16T04:19:31;1.50;23.20
3478;DHT22;37937;61.490;23.506;2023-04-16T04:21:57;2.00;22.60
3478;DHT22;37937;61.490;23.506;2023-04-16T04:24:22;2.50;19.10
3478;DHT22;37937;61.490;23.506;2023-04-16T04:26:48;2.70;15.70
3478;DHT22;37937;61.490;23.506;2023-04-16T04:29:14;2.70;13.20
3478;DHT22;37937;61.490;23.506;2023-04-16T04:31:39;3.10;15.50
3478;DHT22;37937;61.490;23.506;2023-04-16T04:34:05;3.30;12.50
3478;DHT22;37937;61.490;23.506;2023-04-16T04:36:31;3.60;10.80
3478;DHT22;37937;61.490;23.506;2023-04-16T04:38:56;3.90;7.90
3478;DHT22;37937;61.490;23.506;2023-04-16T04:41:22;4.10;9.30
3478;DHT22;37937;61.490;23.506;2023-04-16T04:43:48;4.20;7.30
3478;DHT22;37937;61.490;23.506;2023-04-16T04:46:13;4.50;6.80
3478;DHT22;37937;61.490;23.506;2023-04-16T04:48:39;4.40;2.70
3478;DHT22;37937;61.490;23.506;2023-04-16T04:51:05;4.70;2.90
3478;DHT22;37937;61.490;23.506;2023-04-16T04:53:30;4.30;1.00
3478;DHT22;37937;61.490;23.506;2023-04-16T04:55:56;4.50;1.00
3478;DHT22;37937;61.490;23.506;2023-04-16T04:58:22;4.50;2.60
3478;DHT22;37937;61.490;23.506;2023-04-16T05:00:47;5.00;2.00
3478;DHT22;37937;61.490;23.506;2023-04-16T05:03:17;5.10;1.00
3478;DHT22;37937;61.490;23.506;2023-04-16T05:05:43;5.40;1.00
3478;DHT22;37937;61.490;23.506;2023-04-16T05:08:08;5.40;1.00
3478;DHT22;37937;61.490;23.506;2023-04-16T05:10:34;5.30;1.00
3478;DHT22;37937;61.490;23.506;2023-04-16T05:13:00;5.10;1.00
3478;DHT22;37937;61.490;23.506;2023-04-16T05:15:26;5.20;1.00
3478;DHT22;37937;61.490;23.506;2023-04-16T05:17:51;5.50;1.00
3478;DHT22;37937;61.490;23.506;2023-04-16T05:20:17;5.80;1.00
3478;DHT22;37937;61.490;23.506;2023-04-16T05:22:42;6.10;1.00
3478;DHT22;37937;61.490;23.506;2023-04-16T05:25:08;6.40;1.00
3478;DHT22;37937;61.490;23.506;2023-04-16T05:27:34;6.70;1.00
3478;DHT22;37937;61.490;23.506;2023-04-16T05:30:00;6.90;1.00
3478;DHT22;37937;61.490;23.506;2023-04-16T05:32:26;7.20;1.00
3478;DHT22;37937;61.490;23.506;2023-04-16T05:34:52;7.30;1.00
3478;DHT22;37937;61.490;23.506;2023-04-16T05:37:17;7.40;1.00
3478;DHT22;37937;61.490;23.506;2023-04-16T05:39:43;7.50;1.00
3478;DHT22;37937;61.490;23.506;2023-04-16T05:42:08;6.70;1.00
3478;DHT22;37937;61.490;23.506;2023-04-16T05:44:34;7.40;1.00
3478;DHT22;37937;61.490;23.506;2023-04-16T05:47:00;7.30;1.00
3478;DHT22;37937;61.490;23.506;2023-04-16T05:49:25;7.50;1.00
3478;DHT22;37937;61.490;23.506;2023-04-16T05:51:51;7.50;1.00
3478;DHT22;37937;61.490;23.506;2023-04-16T05:54:16;8.00;1.00
3478;DHT22;37937;61.490;23.506;2023-04-16T05:56:42;8.30;1.00
3478;DHT22;37937;61.490;23.506;2023-04-16T05:59:08;8.60;1.00
3478;DHT22;37937;61.490;23.506;2023-04-16T06:01:33;8.10;1.00
3478;DHT22;37937;61.490;23.506;2023-04-16T06:03:59;8.50;1.00
3478;DHT22;37937;61.490;23.506;2023-04-16T06:06:24;8.30;1.00
3478;DHT22;37937;61.490;23.506;2023-04-16T06:08:51;8.10;1.00
3478;DHT22;37937;61.490;23.506;2023-04-16T06:11:17;8.60;1.00
3478;DHT22;37937;61.490;23.506;2023-04-16T06:13:43;9.00;1.00
3478;DHT22;37937;61.490;23.506;2023-04-16T06:16:08;9.30;1.00
3478;DHT22;37937;61.490;23.506;2023-04-16T06:18:34;8.70;1.00
3478;DHT22;37937;61.490;23.506;2023-04-16T06:21:00;8.70;1.00
3478;DHT22;37937;61.490;23.506;2023-04-16T06:23:26;9.10;1.00
3478;DHT22;37937;61.490;23.506;2023-04-16T06:25:51;9.20;1.00
3478;DHT22;37937;61.490;23.506;2023-04-16T06:28:17;9.50;1.00
3478;DHT22;37937;61.490;23.506;2023-04-16T06:30:42;9.60;1.00
3478;DHT22;37937;61.490;23.506;2023-04-16T06:33:08;9.70;1.00
3478;DHT22;37937;61.490;23.506;2023-04-16T06:35:34;9.20;1.00
3478;DHT22;37937;61.490;23.506;2023-04-16T06:38:00;9.10;1.00
3478;DHT22;37937;61.490;23.506;2023-04-16T06:40:25;8.80;1.00
3478;DHT22;37937;61.490;23.506;2023-04-16T06:42:51;9.00;1.00
3478;DHT22;37937;61.490;23.506;2023-04-16T06:45:17;9.30;1.00
3478;DHT22;37937;61.490;23.506;2023-04-16T06:47:42;9.10;1.00
3478;DHT22;37937;61.490;23.506;2023-04-16T06:50:08;9.50;1.00
3478;DHT22;37937;61.490;23.506;2023-04-16T06:52:34;9.90;1.00
3478;DHT22;37937;61.490;23.506;2023-04-16T06:55:00;9.20;1.00
3478;DHT22;37937;61.490;23.506;2023-04-16T06:57:26;9.40;1.00
3478;DHT22;37937;61.490;23.506;2023-04-16T06:59:51;9.60;1.00
3478;DHT22;37937;61.490;23.506;2023-04-16T07:02:17;10.10;1.00
3478;DHT22;37937;61.490;23.506;2023-04-16T07:04:42;10.20;1.00
3478;DHT22;37937;61.490;23.506;2023-04-16T07:07:08;10.50;1.00
3478;DHT22;37937;61.490;23.506;2023-04-16T07:09:34;10.20;1.00
3478;DHT22;37937;61.490;23.506;2023-04-16T07:11:59;10.20;1.00
3478;DHT22;37937;61.490;23.506;2023-04-16T07:14:25;9.40;1.00
3478;DHT22;37937;61.490;23.506;2023-04-16T07:16:50;9.90;1.00
3478;DHT22;37937;61.490;23.506;2023-04-16T07:19:16;9.40;1.00
3478;DHT22;37937;61.490;23.506;2023-04-16T07:21:42;9.60;1.00
3478;DHT22;37937;61.490;23.506;2023-04-16T07:24:08;9.70;1.00
3478;DHT22;37937;61.490;23.506;2023-04-16T07:26:34;9.70;1.00
3478;DHT22;37937;61.490;23.506;2023-04-16T07:29:00;8.20;1.00
3478;DHT22;37937;61.490;23.506;2023-04-16T07:31:26;9.20;1.00
3478;DHT22;37937;61.490;23.506;2023-04-16T07:33:51;9.50;1.00
3478;DHT22;37937;61.490;23.506;2023-04-16T07:36:17;9.60;1.00
3478;DHT22;37937;61.490;23.506;2023-04-16T07:38:42;9.50;1.00
3478;DHT22;37937;61.490;23.506;2023-04-16T07:41:08;9.10;1.00
3478;DHT22;37937;61.490;23.506;2023-04-16T07:43:34;9.60;1.00
3478;DHT22;37937;61.490;23.506;2023-04-16T07:45:59;9.00;1.00
3478;DHT22;37937;61.490;23.506;2023-04-16T07:48:25;9.00;1.00
3478;DHT22;37937;61.490;23.506;2023-04-16T07:50:51;8.50;1.00
3478;DHT22;37937;61.490;23.506;2023-04-16T07:53:16;9.20;1.00
3478;DHT22;37937;61.490;23.506;2023-04-16T07:55:42;9.60;1.00
3478;DHT22;37937;61.490;23.506;2023-04-16T07:58:07;10.00;1.00
3478;DHT22;37937;61.490;23.506;2023-04-16T08:00:34;9.90;1.00
3478;DHT22;37937;61.490;23.506;2023-04-16T08:02:59;9.60;1.00
3478;DHT22;37937;61.490;23.506;2023-04-16T08:05:25;9.40;1.00
3478;DHT22;37937;61.490;23.506;2023-04-16T08:07:50;9.50;1.00
3478;DHT22;37937;61.490;23.506;2023-04-16T08:10:16;10.00;1.00
3478;DHT22;37937;61.490;23.506;2023-04-16T08:12:42;10.30;1.00
3478;DHT22;37937;61.490;23.506;2023-04-16T08:15:07;9.60;1.00
3478;DHT22;37937;61.490;23.506;2023-04-16T08:17:33;9.60;1.00
3478;DHT22;37937;61.490;23.506;2023-04-16T08:19:59;10.10;1.00
3478;DHT22;37937;61.490;23.506;2023-04-16T08:22:25;9.70;1.00
3478;DHT22;37937;61.490;23.506;2023-04-16T08:24:50;10.20;1.00
3478;DHT22;37937;61.490;23.506;2023-04-16T08:27:16;10.40;1.00
3478;DHT22;37937;61.490;23.506;2023-04-16T08:29:42;10.30;1.00
3478;DHT22;37937;61.490;23.506;2023-04-16T08:32:08;10.20;1.00
3478;DHT22;37937;61.490;23.506;2023-04-16T08:34:34;10.00;1.00
3478;DHT22;37937;61.490;23.506;2023-04-16T08:37:00;10.10;1.00
3478;DHT22;37937;61.490;23.506;2023-04-16T08:39:26;10.40;1.00
3478;DHT22;37937;61.490;23.506;2023-04-16T08:41:51;10.20;1.00
3478;DHT22;37937;61.490;23.506;2023-04-16T08:46:43;10.60;1.00
3478;DHT22;37937;61.490;23.506;2023-04-16T08:49:12;11.30;1.00
3478;DHT22;37937;61.490;23.506;2023-04-16T08:51:40;11.50;1.00
3478;DHT22;37937;61.490;23.506;2023-04-16T08:54:10;11.70;1.00
3478;DHT22;37937;61.490;23.506;2023-04-16T08:56:39;12.00;1.00
3478;DHT22;37937;61.490;23.506;2023-04-16T08:59:06;11.20;1.00
3478;DHT22;37937;61.490;23.506;2023-04-16T09:01:32;11.50;1.00
3478;DHT22;37937;61.490;23.506;2023-04-16T09:03:58;12.00;1.00
3478;DHT22;37937;61.490;23.506;2023-04-16T09:06:28;12.00;1.00
3478;DHT22;37937;61.490;23.506;2023-04-16T09:08:55;12.50;1.00
3478;DHT22;37937;61.490;23.506;2023-04-16T09:11:22;12.50;1.00
3478;DHT22;37937;61.490;23.506;2023-04-16T09:13:48;12.40;1.00
3478;DHT22;37937;61.490;23.506;2023-04-16T09:16:14;12.60;1.00
3478;DHT22;37937;61.490;23.506;2023-04-16T09:18:40;12.40;1.00
3478;DHT22;37937;61.490;23.506;2023-04-16T09:21:06;11.90;1.00
3478;DHT22;37937;61.490;23.506;2023-04-16T09:23:33;12.10;1.00
3478;DHT22;37937;61.490;23.506;2023-04-16T09:25:59;12.40;1.00
3478;DHT22;37937;61.490;23.506;2023-04-16T09:28:41;13.30;1.00
3478;DHT22;37937;61.490;23.506;2023-04-16T09:31:10;13.40;1.00
3478;DHT22;37937;61.490;23.506;2023-04-16T09:33:37;13.60;1.00
3478;DHT22;37937;61.490;23.506;2023-04-16T09:36:03;13.00;1.00
3478;DHT22;37937;61.490;23.506;2023-04-16T09:38:47;12.50;1.00
3478;DHT22;37937;61.490;23.506;2023-04-16T09:41:13;13.10;1.00
3478;DHT22;37937;61.490;23.506;2023-04-16T09:44:15;13.70;1.00
3478;DHT22;37937;61.490;23.506;2023-04-16T09:46:34;13.80;1.00
3478;DHT22;37937;61.490;23.506;2023-04-16T09:49:09;13.00;1.00
3478;DHT22;37937;61.490;23.506;2023-04-16T09:51:39;13.40;1.00
3478;DHT22;37937;61.490;23.506;2023-04-16T09:54:05;12.50;1.00
3478;DHT22;37937;61.490;23.506;2023-04-16T09:56:31;13.00;1.00
3478;DHT22;37937;61.490;23.506;2023-04-16T09:58:58;12.90;1.00
3478;DHT22;37937;61.490;23.506;2023-04-16T10:01:24;13.00;1.00
3478;DHT22;37937;61.490;23.506;2023-04-16T10:03:51;13.40;1.00
3478;DHT22;37937;61.490;23.506;2023-04-16T10:06:18;13.20;1.00
3478;DHT22;37937;61.490;23.506;2023-04-16T10:08:47;13.40;1.00
3478;DHT22;37937;61.490;23.506;2023-04-16T10:11:13;13.80;1.00
3478;DHT22;37937;61.490;23.506;2023-04-16T10:13:38;14.00;1.00
3478;DHT22;37937;61.490;23.506;2023-04-16T10:16:05;14.10;1.00
3478;DHT22;37937;61.490;23.506;2023-04-16T10:18:30;13.90;1.00
3478;DHT22;37937;61.490;23.506;2023-04-16T10:20:56;13.60;1.00
3478;DHT22;37937;61.490;23.506;2023-04-16T10:23:22;13.90;1.00
3478;DHT22;37937;61.490;23.506;2023-04-16T10:25:48;13.70;1.00
3478;DHT22;37937;61.490;23.506;2023-04-16T10:28:14;13.20;1.00
3478;DHT22;37937;61.490;23.506;2023-04-16T10:30:41;13.90;1.00
3478;DHT22;37937;61.490;23.506;2023-04-16T10:33:12;13.90;1.00
3478;DHT22;37937;61.490;23.506;2023-04-16T10:35:38;13.70;1.00
3478;DHT22;37937;61.490;23.506;2023-04-16T10:38:23;13.90;1.00
3478;DHT22;37937;61.490;23.506;2023-04-16T10:41:01;14.10;1.00
3478;DHT22;37937;61.490;23.506;2023-04-16T10:43:27;14.00;1.00
3478;DHT22;37937;61.490;23.506;2023-04-16T10:45:53;14.10;1.00
3478;DHT22;37937;61.490;23.506;2023-04-16T10:48:19;14.30;1.00
3478;DHT22;37937;61.490;23.506;2023-04-16T10:51:06;13.50;1.00
3478;DHT22;37937;61.490;23.506;2023-04-16T10:53:31;13.10;1.00
3478;DHT22;37937;61.490;23.506;2023-04-16T10:56:43;13.60;1.00
3478;DHT22;37937;61.490;23.506;2023-04-16T10:58:43;14.10;1.00
3478;DHT22;37937;61.490;23.506;2023-04-16T11:01:10;14.40;1.00
3478;DHT22;37937;61.490;23.506;2023-04-16T11:03:41;13.80;1.00
3478;DHT22;37937;61.490;23.506;2023-04-16T11:06:10;14.00;1.00
3478;DHT22;37937;61.490;23.506;2023-04-16T11:08:38;13.40;1.00
3478;DHT22;37937;61.490;23.506;2023-04-16T11:11:04;13.50;1.00
3478;DHT22;37937;61.490;23.506;2023-04-16T11:13:30;13.50;1.00
3478;DHT22;37937;61.490;23.506;2023-04-16T11:15:56;13.30;1.00
3478;DHT22;37937;61.490;23.506;2023-04-16T11:18:23;13.80;1.00
3478;DHT22;37937;61.490;23.506;2023-04-16T11:20:49;13.00;1.00
3478;DHT22;37937;61.490;23.506;2023-04-16T11:23:15;13.30;1.00
3478;DHT22;37937;61.490;23.506;2023-04-16T11:25:41;13.30;1.00
3478;DHT22;37937;61.490;23.506;2023-04-16T11:28:06;13.40;1.00
3478;DHT22;37937;61.490;23.506;2023-04-16T11:30:36;13.80;1.00
3478;DHT22;37937;61.490;23.506;2023-04-16T11:33:04;13.50;1.00
3478;DHT22;37937;61.490;23.506;2023-04-16T11:35:30;13.70;1.00
3478;DHT22;37937;61.490;23.506;2023-04-16T11:37:56;13.60;1.00
3478;DHT22;37937;61.490;23.506;2023-04-16T11:40:22;13.30;1.00
3478;DHT22;37937;61.490;23.506;2023-04-16T11:42:47;13.10;1.00
3478;DHT22;37937;61.490;23.506;2023-04-16T11:45:13;12.90;1.00
3478;DHT22;37937;61.490;23.506;2023-04-16T11:47:46;13.10;1.00
3478;DHT22;37937;61.490;23.506;2023-04-16T11:50:19;13.10;1.00
3478;DHT22;37937;61.490;23.506;2023-04-16T11:52:46;12.90;1.00
3478;DHT22;37937;61.490;23.506;2023-04-16T11:55:12;13.10;1.00
3478;DHT22;37937;61.490;23.506;2023-04-16T11:57:37;12.90;1.00
3478;DHT22;37937;61.490;23.506;2023-04-16T12:00:03;13.10;1.00
3478;DHT22;37937;61.490;23.506;2023-04-16T12:02:36;12.90;1.00
3478;DHT22;37937;61.490;23.506;2023-04-16T12:05:03;12.50;1.00
3478;DHT22;37937;61.490;23.506;2023-04-16T12:07:29;12.90;1.00
3478;DHT22;37937;61.490;23.506;2023-04-16T12:10:04;12.60;1.00
3478;DHT22;37937;61.490;23.506;2023-04-16T12:12:31;12.70;1.00
3478;DHT22;37937;61.490;23.506;2023-04-16T12:14:57;12.50;1.00
3478;DHT22;37937;61.490;23.506;2023-04-16T12:17:28;12.40;1.00
3478;DHT22;37937;61.490;23.506;2023-04-16T12:19:55;12.60;1.00
3478;DHT22;37937;61.490;23.506;2023-04-16T12:25:02;12.80;1.00
3478;DHT22;37937;61.490;23.506;2023-04-16T12:30:13;12.40;1.00
3478;DHT22;37937;61.490;23.506;2023-04-16T12:32:39;12.40;1.00
3478;DHT22;37937;61.490;23.506;2023-04-16T12:35:05;12.40;1.00
3478;DHT22;37937;61.490;23.506;2023-04-16T12:37:30;12.00;1.00
3478;DHT22;37937;61.490;23.506;2023-04-16T12:39:56;12.30;1.00
3478;DHT22;37937;61.490;23.506;2023-04-16T12:42:22;12.30;1.00
3478;DHT22;37937;61.490;23.506;2023-04-16T12:44:47;12.30;1.00
3478;DHT22;37937;61.490;23.506;2023-04-16T12:47:13;12.30;1.00
3478;DHT22;37937;61.490;23.506;2023-04-16T12:49:38;12.40;1.00
3478;DHT22;37937;61.490;23.506;2023-04-16T12:52:04;12.20;1.00
3478;DHT22;37937;61.490;23.506;2023-04-16T12:54:30;12.40;1.00
3478;DHT22;37937;61.490;23.506;2023-04-16T12:56:56;12.50;1.00
3478;DHT22;37937;61.490;23.506;2023-04-16T12:59:22;12.40;1.00
3478;DHT22;37937;61.490;23.506;2023-04-16T13:01:48;12.30;1.00
3478;DHT22;37937;61.490;23.506;2023-04-16T13:04:13;12.30;1.00
3478;DHT22;37937;61.490;23.506;2023-04-16T13:06:39;12.00;1.00
3478;DHT22;37937;61.490;23.506;2023-04-16T13:09:05;11.90;1.00
3478;DHT22;37937;61.490;23.506;2023-04-16T13:11:31;11.80;1.00
3478;DHT22;37937;61.490;23.506;2023-04-16T13:13:56;11.80;1.00
3478;DHT22;37937;61.490;23.506;2023-04-16T13:16:22;11.60;1.00
3478;DHT22;37937;61.490;23.506;2023-04-16T13:18:48;11.40;1.00
3478;DHT22;37937;61.490;23.506;2023-04-16T13:21:14;11.50;1.00
3478;DHT22;37937;61.490;23.506;2023-04-16T13:23:39;11.40;1.00
3478;DHT22;37937;61.490;23.506;2023-04-16T13:26:05;11.30;1.00
3478;DHT22;37937;61.490;23.506;2023-04-16T13:28:31;11.20;1.00
3478;DHT22;37937;61.490;23.506;2023-04-16T13:30:57;11.10;1.00
3478;DHT22;37937;61.490;23.506;2023-04-16T13:33:23;11.10;1.00
3478;DHT22;37937;61.490;23.506;2023-04-16T13:35:49;11.10;1.00
3478;DHT22;37937;61.490;23.506;2023-04-16T13:38:14;11.00;1.00
3478;DHT22;37937;61.490;23.506;2023-04-16T13:40:40;11.10;1.00
3478;DHT22;37937;61.490;23.506;2023-04-16T13:43:06;10.90;1.00
3478;DHT22;37937;61.490;23.506;2023-04-16T13:45:32;10.90;1.00
3478;DHT22;37937;61.490;23.506;2023-04-16T13:47:58;10.90;1.00
3478;DHT22;37937;61.490;23.506;2023-04-16T13:50:23;10.90;1.00
3478;DHT22;37937;61.490;23.506;2023-04-16T13:52:49;10.80;1.00
3478;DHT22;37937;61.490;23.506;2023-04-16T13:55:15;10.90;1.00
3478;DHT22;37937;61.490;23.506;2023-04-16T13:57:44;10.80;1.00
3478;DHT22;37937;61.490;23.506;2023-04-16T14:00:10;10.80;1.00
3478;DHT22;37937;61.490;23.506;2023-04-16T14:02:36;10.80;1.00
3478;DHT22;37937;61.490;23.506;2023-04-16T14:05:01;10.70;1.00
3478;DHT22;37937;61.490;23.506;2023-04-16T14:07:27;10.60;1.00
3478;DHT22;37937;61.490;23.506;2023-04-16T14:09:53;10.60;1.00
3478;DHT22;37937;61.490;23.506;2023-04-16T14:12:19;10.60;1.00
3478;DHT22;37937;61.490;23.506;2023-04-16T14:14:44;10.50;1.00
3478;DHT22;37937;61.490;23.506;2023-04-16T14:17:10;10.50;1.00
3478;DHT22;37937;61.490;23.506;2023-04-16T14:19:36;10.50;1.00
3478;DHT22;37937;61.490;23.506;2023-04-16T14:22:01;10.40;1.00
3478;DHT22;37937;61.490;23.506;2023-04-16T14:24:27;10.50;1.00
3478;DHT22;37937;61.490;23.506;2023-04-16T14:26:52;10.40;1.00
3478;DHT22;37937;61.490;23.506;2023-04-16T14:29:18;10.30;1.00
3478;DHT22;37937;61.490;23.506;2023-04-16T14:31:44;10.30;1.00
3478;DHT22;37937;61.490;23.506;2023-04-16T14:34:09;10.30;1.00
3478;DHT22;37937;61.490;23.506;2023-04-16T14:36:35;10.30;1.00
3478;DHT22;37937;61.490;23.506;2023-04-16T14:39:01;10.20;1.00
3478;DHT22;37937;61.490;23.506;2023-04-16T14:41:27;10.20;1.00
3478;DHT22;37937;61.490;23.506;2023-04-16T14:43:53;10.20;1.00
3478;DHT22;37937;61.490;23.506;2023-04-16T14:46:18;10.10;1.00
3478;DHT22;37937;61.490;23.506;2023-04-16T14:48:44;10.10;1.00
3478;DHT22;37937;61.490;23.506;2023-04-16T14:51:10;10.10;1.00
3478;DHT22;37937;61.490;23.506;2023-04-16T14:53:36;10.10;1.00
3478;DHT22;37937;61.490;23.506;2023-04-16T14:56:02;10.10;1.00
3478;DHT22;37937;61.490;23.506;2023-04-16T14:58:27;10.00;1.00
3478;DHT22;37937;61.490;23.506;2023-04-16T15:00:53;10.00;1.00
3478;DHT22;37937;61.490;23.506;2023-04-16T15:03:19;10.10;1.00
3478;DHT22;37937;61.490;23.506;2023-04-16T15:05:44;10.10;1.00
3478;DHT22;37937;61.490;23.506;2023-04-16T15:08:15;10.00;1.00
3478;DHT22;37937;61.490;23.506;2023-04-16T15:10:41;10.00;1.00
3478;DHT22;37937;61.490;23.506;2023-04-16T15:13:07;10.00;1.00
3478;DHT22;37937;61.490;23.506;2023-04-16T15:15:33;9.90;1.00
3478;DHT22;37937;61.490;23.506;2023-04-16T15:17:58;9.80;1.00
3478;DHT22;37937;61.490;23.506;2023-04-16T15:20:24;9.80;1.00
3478;DHT22;37937;61.490;23.506;2023-04-16T15:22:50;9.90;1.00
3478;DHT22;37937;61.490;23.506;2023-04-16T15:25:16;9.90;1.00
3478;DHT22;37937;61.490;23.506;2023-04-16T15:27:41;9.90;1.00
3478;DHT22;37937;61.490;23.506;2023-04-16T15:30:07;10.00;1.00
3478;DHT22;37937;61.490;23.506;2023-04-16T15:32:33;9.90;1.00
3478;DHT22;37937;61.490;23.506;2023-04-16T15:35:01;9.80;1.00
3478;DHT22;37937;61.490;23.506;2023-04-16T15:37:26;9.80;1.00
3478;DHT22;37937;61.490;23.506;2023-04-16T15:39:52;9.70;1.00
3478;DHT22;37937;61.490;23.506;2023-04-16T15:42:18;9.80;1.00
3478;DHT22;37937;61.490;23.506;2023-04-16T15:44:43;9.70;1.00
3478;DHT22;37937;61.490;23.506;2023-04-16T15:47:09;9.60;1.00